createdAt,value
2022-11-15T00:00:52.688Z,21.23
2022-11-15T00:03:39.243Z,19.92
2022-11-15T00:06:25.335Z,16.88
2022-11-15T00:09:11.972Z,17.42
2022-11-15T00:11:58.643Z,15.30
2022-11-15T00:14:45.763Z,17.90
2022-11-15T00:17:32.990Z,15.20
2022-11-15T00:20:19.604Z,18.67
2022-11-15T00:23:06.601Z,15.63
2022-11-15T00:26:00.129Z,15.95
2022-11-15T00:31:33.478Z,16.65
2022-11-15T00:34:20.310Z,19.67
2022-11-15T00:37:08.140Z,15.85
2022-11-15T00:39:54.445Z,18.27
2022-11-15T00:42:40.995Z,18.67
2022-11-15T00:45:27.532Z,17.85
2022-11-15T00:48:14.240Z,16.42
2022-11-15T00:51:00.902Z,12.25
2022-11-15T00:53:47.786Z,14.40
2022-11-15T00:56:35.067Z,15.23
2022-11-15T00:59:22.134Z,11.57
2022-11-15T01:02:08.842Z,12.55
2022-11-15T01:04:55.472Z,11.25
2022-11-15T01:07:43.060Z,13.55
2022-11-15T01:10:29.374Z,12.02
2022-11-15T01:13:15.674Z,13.23
2022-11-15T01:16:22.605Z,20.73
2022-11-15T01:19:08.988Z,14.93
2022-11-15T01:21:55.529Z,16.13
2022-11-15T01:24:42.602Z,12.85
2022-11-15T01:27:30.976Z,12.85
2022-11-15T01:30:18.003Z,13.25
2022-11-15T01:33:04.713Z,10.30
2022-11-15T01:35:51.176Z,9.25
2022-11-15T01:38:38.326Z,11.68
2022-11-15T01:41:30.838Z,9.23
2022-11-15T01:44:38.263Z,9.98
2022-11-15T01:47:38.822Z,9.98
2022-11-15T01:50:32.001Z,10.52
2022-11-15T01:53:22.169Z,9.70
2022-11-15T01:56:12.925Z,10.40
2022-11-15T01:59:04.827Z,10.35
2022-11-15T02:01:52.172Z,10.95
2022-11-15T02:04:45.873Z,11.05
2022-11-15T02:07:35.296Z,12.70
2022-11-15T02:10:24.912Z,9.43
2022-11-15T02:13:11.919Z,9.43
2022-11-15T02:16:04.868Z,14.35
2022-11-15T02:19:16.678Z,13.60
2022-11-15T02:22:40.523Z,12.82
2022-11-15T02:25:47.467Z,17.45
2022-11-15T02:29:01.327Z,17.10
2022-11-15T02:32:20.488Z,16.02
2022-11-15T02:35:21.980Z,12.80
2022-11-15T02:38:21.323Z,11.32
2022-11-15T02:41:23.625Z,12.50
2022-11-15T02:44:22.767Z,10.18
2022-11-15T02:47:14.929Z,11.15
2022-11-15T02:50:07.812Z,11.48
2022-11-15T02:52:54.572Z,14.18
2022-11-15T02:55:51.136Z,12.30
2022-11-15T02:59:08.384Z,11.23
2022-11-15T03:02:12.710Z,12.88
2022-11-15T03:05:06.192Z,12.18
2022-11-15T03:08:09.379Z,12.43
2022-11-15T03:11:14.642Z,9.43
2022-11-15T03:14:16.372Z,10.23
2022-11-15T03:17:05.300Z,9.88
2022-11-15T03:19:58.588Z,9.20
2022-11-15T03:22:48.721Z,9.77
2022-11-15T03:25:48.465Z,10.15
2022-11-15T03:28:43.807Z,10.25
2022-11-15T03:31:50.492Z,9.50
2022-11-15T03:34:51.631Z,9.30
2022-11-15T03:38:00.339Z,9.45
2022-11-15T03:40:53.526Z,9.05
2022-11-15T03:44:23.322Z,8.65
2022-11-15T03:47:13.306Z,13.25
2022-11-15T03:50:11.778Z,8.98
2022-11-15T03:52:59.802Z,8.63
2022-11-15T03:55:46.287Z,10.07
2022-11-15T03:58:33.108Z,8.70
2022-11-15T04:01:19.975Z,7.95
2022-11-15T04:04:06.822Z,9.10
2022-11-15T04:06:53.032Z,8.55
2022-11-15T04:09:59.512Z,9.57
2022-11-15T04:12:50.016Z,10.75
2022-11-15T04:15:36.994Z,9.35
2022-11-15T04:18:25.431Z,8.65
2022-11-15T04:21:30.444Z,9.43
2022-11-15T04:24:16.712Z,7.93
2022-11-15T04:27:03.444Z,9.57
2022-11-15T04:29:49.914Z,7.95
2022-11-15T04:32:36.563Z,11.05
2022-11-15T04:35:23.115Z,10.93
2022-11-15T04:38:11.145Z,10.05
2022-11-15T04:40:57.567Z,11.75
2022-11-15T04:43:44.366Z,9.07
2022-11-15T04:46:30.690Z,8.13
2022-11-15T04:49:17.294Z,10.23
2022-11-15T04:52:03.852Z,10.05
2022-11-15T04:54:50.632Z,437.92
2022-11-15T04:57:37.652Z,9.27
2022-11-15T05:00:24.229Z,8.52
2022-11-15T05:03:29.876Z,9.88
2022-11-15T05:06:16.334Z,10.10
2022-11-15T05:09:03.236Z,8.90
2022-11-15T05:11:49.912Z,8.80
2022-11-15T05:14:36.571Z,8.45
2022-11-15T05:17:23.395Z,6.97
2022-11-15T05:20:10.827Z,8.02
2022-11-15T05:22:57.237Z,8.00
2022-11-15T05:25:44.014Z,9.10
2022-11-15T05:28:30.290Z,8.43
2022-11-15T05:31:17.546Z,7.32
2022-11-15T05:34:05.789Z,10.50
2022-11-15T05:36:52.585Z,9.70
2022-11-15T05:39:39.158Z,9.18
2022-11-15T05:42:27.685Z,8.40
2022-11-15T05:45:14.639Z,9.43
2022-11-15T05:48:02.305Z,9.25
2022-11-15T05:50:49.758Z,10.10
2022-11-15T05:53:37.662Z,11.35
2022-11-15T05:56:24.406Z,10.25
2022-11-15T05:59:11.883Z,13.07
2022-11-15T06:01:58.998Z,8.73
2022-11-15T06:04:45.527Z,9.77
2022-11-15T06:07:32.382Z,127.75
2022-11-15T06:10:18.998Z,75.03
2022-11-15T06:13:07.115Z,48.90
2022-11-15T06:15:57.620Z,51.45
2022-11-15T06:18:44.403Z,31.92
2022-11-15T06:21:30.885Z,17.55
2022-11-15T06:24:17.276Z,17.67
2022-11-15T06:27:03.968Z,11.98
2022-11-15T06:29:50.449Z,14.93
2022-11-15T06:32:37.096Z,11.20
2022-11-15T06:35:24.469Z,13.63
2022-11-15T06:38:11.918Z,13.52
2022-11-15T06:41:06.538Z,10.15
2022-11-15T06:43:52.993Z,11.52
2022-11-15T06:46:39.832Z,14.25
2022-11-15T06:49:26.587Z,21.38
2022-11-15T06:52:13.115Z,16.75
2022-11-15T06:54:59.756Z,17.20
2022-11-15T06:57:51.583Z,16.48
2022-11-15T07:00:38.264Z,19.63
2022-11-15T07:03:24.630Z,13.85
2022-11-15T07:06:11.462Z,15.07
2022-11-15T07:08:58.216Z,12.27
2022-11-15T07:11:45.065Z,12.25
2022-11-15T07:14:31.851Z,9.82
2022-11-15T07:17:18.596Z,10.52
2022-11-15T07:20:05.618Z,13.15
2022-11-15T07:22:52.525Z,15.40
2022-11-15T07:25:39.217Z,10.30
2022-11-15T07:28:29.058Z,12.52
2022-11-15T07:31:15.630Z,11.85
2022-11-15T07:34:02.232Z,14.30
2022-11-15T07:36:49.129Z,15.07
2022-11-15T07:39:35.732Z,13.90
2022-11-15T07:42:40.886Z,11.43
2022-11-15T07:45:27.760Z,12.65
2022-11-15T07:48:14.530Z,11.73
2022-11-15T07:51:01.086Z,13.80
2022-11-15T07:53:47.771Z,13.40
2022-11-15T07:56:34.676Z,14.35
2022-11-15T07:59:21.744Z,10.88
2022-11-15T08:02:10.452Z,11.25
2022-11-15T08:04:57.578Z,10.85
2022-11-15T08:07:44.497Z,10.68
2022-11-15T08:10:34.175Z,11.68
2022-11-15T08:13:23.027Z,12.77
2022-11-15T08:16:09.799Z,8.65
2022-11-15T08:18:56.566Z,9.82
2022-11-15T08:21:43.355Z,9.50
2022-11-15T08:24:29.908Z,6.68
2022-11-15T08:27:16.650Z,7.97
2022-11-15T08:30:03.309Z,8.10
2022-11-15T08:32:54.226Z,8.68
2022-11-15T08:35:44.970Z,6.97
2022-11-15T08:38:31.889Z,5.68
2022-11-15T08:41:27.244Z,8.63
2022-11-15T08:44:13.772Z,9.45
2022-11-15T08:47:00.371Z,7.45
2022-11-15T08:49:46.632Z,7.22
2022-11-15T08:52:33.319Z,7.25
2022-11-15T08:55:23.492Z,9.20
2022-11-15T08:58:12.613Z,9.20
2022-11-15T09:00:59.595Z,8.50
2022-11-15T09:03:46.523Z,8.00
2022-11-15T09:06:33.160Z,10.82
2022-11-15T09:09:19.531Z,9.32
2022-11-15T09:12:07.808Z,8.98
2022-11-15T09:14:54.156Z,9.32
2022-11-15T09:17:40.836Z,9.57
2022-11-15T09:20:27.245Z,10.23
2022-11-15T09:23:15.141Z,9.48
2022-11-15T09:26:03.954Z,7.35
2022-11-15T09:28:50.678Z,8.45
2022-11-15T09:31:37.141Z,8.63
2022-11-15T09:34:24.000Z,8.20
2022-11-15T09:37:10.295Z,7.43
2022-11-15T09:39:56.900Z,8.45
2022-11-15T09:42:54.904Z,8.55
2022-11-15T09:46:09.369Z,7.20
2022-11-15T09:49:09.734Z,7.32
2022-11-15T09:52:01.747Z,9.55
2022-11-15T09:54:56.347Z,8.02
2022-11-15T09:57:53.314Z,10.75
2022-11-15T10:03:36.120Z,9.05
2022-11-15T10:06:07.294Z,7.15
2022-11-15T10:08:48.927Z,10.50
2022-11-15T10:11:39.195Z,8.70
2022-11-15T10:14:18.345Z,10.10
2022-11-15T10:17:14.668Z,8.20
2022-11-15T10:19:42.591Z,9.73
2022-11-15T10:22:26.699Z,10.93
2022-11-15T10:25:15.009Z,10.07
2022-11-15T10:27:45.565Z,8.85
2022-11-15T10:30:17.289Z,9.40
2022-11-15T10:33:16.541Z,10.57
2022-11-15T10:35:44.678Z,7.55
2022-11-15T10:38:13.349Z,9.77
2022-11-15T10:40:42.778Z,8.85
2022-11-15T10:43:10.947Z,6.88
2022-11-15T10:45:39.632Z,9.60
2022-11-15T10:48:13.753Z,12.10
2022-11-15T10:50:47.585Z,13.30
2022-11-15T10:53:44.285Z,13.02
2022-11-15T10:56:16.891Z,11.90
2022-11-15T10:58:52.453Z,9.90
2022-11-15T11:01:28.704Z,11.13
2022-11-15T11:04:02.778Z,11.88
2022-11-15T11:06:31.939Z,13.73
2022-11-15T11:09:01.739Z,10.18
2022-11-15T11:11:50.542Z,7.93
2022-11-15T11:14:34.535Z,11.00
2022-11-15T11:17:33.925Z,9.32
2022-11-15T11:20:42.442Z,9.65
2022-11-15T11:23:25.582Z,8.05
2022-11-15T11:26:11.212Z,10.85
2022-11-15T11:28:59.549Z,9.82
2022-11-15T11:31:51.947Z,15.68
2022-11-15T11:34:35.603Z,16.42
2022-11-15T11:37:33.423Z,14.13
2022-11-15T11:40:34.170Z,15.02
2022-11-15T11:43:21.565Z,11.23
2022-11-15T11:46:07.892Z,11.63
2022-11-15T11:48:41.780Z,9.27
2022-11-15T11:51:29.971Z,10.02
2022-11-15T11:54:06.752Z,9.70
2022-11-15T11:56:39.249Z,9.10
2022-11-15T11:59:25.900Z,5.55
2022-11-15T12:01:54.610Z,6.22
2022-11-15T12:04:32.161Z,7.22
2022-11-15T12:07:33.596Z,13.10
2022-11-15T12:10:17.289Z,7.45
2022-11-15T12:12:51.747Z,10.05
2022-11-15T12:15:26.284Z,8.45
2022-11-15T12:17:57.007Z,12.38
2022-11-15T12:20:31.642Z,10.05
2022-11-15T12:23:21.163Z,11.20
2022-11-15T12:26:00.862Z,10.88
2022-11-15T12:29:05.885Z,11.63
2022-11-15T12:31:45.059Z,11.75
2022-11-15T12:34:38.739Z,11.38
2022-11-15T12:37:48.368Z,8.38
2022-11-15T12:40:31.615Z,9.45
2022-11-15T12:43:05.515Z,9.65
2022-11-15T12:45:37.923Z,11.85
2022-11-15T12:48:17.905Z,9.30
2022-11-15T12:50:51.785Z,8.20
2022-11-15T12:53:25.890Z,11.13
2022-11-15T12:56:06.007Z,11.82
2022-11-15T12:58:51.084Z,8.20
2022-11-15T13:01:35.498Z,9.93
2022-11-15T13:04:28.053Z,7.35
2022-11-15T13:07:02.444Z,6.13
2022-11-15T13:09:34.006Z,6.50
2022-11-15T13:12:31.976Z,7.00
2022-11-15T13:15:13.750Z,6.93
2022-11-15T13:17:48.164Z,8.85
2022-11-15T13:20:17.103Z,8.80
2022-11-15T13:23:08.722Z,9.57
2022-11-15T13:25:54.593Z,12.77
2022-11-15T13:28:30.150Z,9.70
2022-11-15T13:31:01.992Z,6.88
2022-11-15T13:33:35.929Z,8.10
2022-11-15T13:36:17.805Z,9.25
2022-11-15T13:38:46.305Z,13.95
2022-11-15T13:41:26.188Z,12.90
2022-11-15T13:43:56.666Z,12.15
2022-11-15T13:46:26.065Z,12.07
2022-11-15T13:49:06.730Z,14.00
2022-11-15T13:51:54.788Z,13.43
2022-11-15T13:54:53.006Z,16.17
2022-11-15T13:57:46.041Z,15.02
2022-11-15T14:00:36.172Z,13.37
2022-11-15T14:03:29.064Z,13.48
2022-11-15T14:06:08.048Z,16.17
2022-11-15T14:08:37.054Z,13.52
2022-11-15T14:11:19.259Z,11.93
2022-11-15T14:14:24.134Z,16.83
2022-11-15T14:17:00.467Z,12.05
2022-11-15T14:19:29.290Z,11.32
2022-11-15T14:22:15.831Z,13.13
2022-11-15T14:24:47.433Z,14.80
2022-11-15T14:27:29.248Z,12.05
2022-11-15T14:29:57.729Z,12.93
2022-11-15T14:32:29.354Z,14.25
2022-11-15T14:35:03.108Z,14.57
2022-11-15T14:37:36.010Z,15.05
2022-11-15T14:40:06.683Z,15.07
2022-11-15T14:42:35.292Z,18.30
2022-11-15T14:45:03.482Z,16.98
2022-11-15T14:47:32.125Z,15.63
2022-11-15T14:50:01.258Z,16.30
2022-11-15T14:52:36.616Z,17.02
2022-11-15T14:55:39.776Z,15.32
2022-11-15T14:58:11.331Z,17.85
2022-11-15T15:00:41.982Z,20.25
2022-11-15T15:03:11.146Z,20.50
2022-11-15T15:05:42.589Z,24.77
2022-11-15T15:08:11.611Z,33.80
2022-11-15T15:10:43.088Z,28.40
2022-11-15T15:13:23.108Z,36.10
2022-11-15T15:15:52.775Z,31.00
2022-11-15T15:18:21.358Z,34.72
2022-11-15T15:21:08.081Z,33.40
2022-11-15T15:23:36.704Z,30.88
2022-11-15T15:26:05.429Z,30.90
2022-11-15T15:28:35.039Z,28.73
2022-11-15T15:31:04.214Z,29.27
2022-11-15T15:33:34.233Z,32.05
2022-11-15T15:36:02.485Z,28.17
2022-11-15T15:38:32.066Z,25.20
2022-11-15T15:41:02.988Z,27.23
2022-11-15T15:43:31.221Z,26.90
2022-11-15T15:45:59.818Z,28.63
2022-11-15T15:48:28.192Z,34.40
2022-11-15T15:50:56.776Z,29.77
2022-11-15T15:53:25.213Z,30.52
2022-11-15T15:55:53.953Z,29.35
2022-11-15T15:58:22.466Z,29.05
2022-11-15T16:00:50.716Z,30.33
2022-11-15T16:03:19.189Z,28.55
2022-11-15T16:05:47.801Z,25.60
2022-11-15T16:08:21.640Z,23.02
2022-11-15T16:10:50.377Z,23.75
2022-11-15T16:13:19.158Z,26.60
2022-11-15T16:15:55.739Z,30.80
2022-11-15T16:18:23.918Z,33.58
2022-11-15T16:20:55.788Z,30.55
2022-11-15T16:23:25.611Z,29.67
2022-11-15T16:25:57.364Z,31.42
2022-11-15T16:28:29.103Z,30.95
2022-11-15T16:31:15.827Z,30.65
2022-11-15T16:33:44.127Z,31.75
2022-11-15T16:36:28.466Z,34.47
2022-11-15T16:39:00.119Z,38.58
2022-11-15T16:41:29.152Z,34.25
2022-11-15T16:43:57.653Z,38.58
2022-11-15T16:46:27.794Z,35.05
2022-11-15T16:48:57.197Z,40.88
2022-11-15T16:51:25.721Z,47.08
2022-11-15T16:53:54.286Z,37.88
2022-11-15T16:56:25.504Z,46.03
2022-11-15T16:59:01.327Z,51.40
2022-11-15T17:01:36.942Z,88.35
2022-11-15T17:04:14.340Z,148.80
2022-11-15T17:06:44.328Z,180.80
2022-11-15T17:09:24.714Z,212.02
2022-11-15T17:11:53.010Z,193.68
2022-11-15T17:14:21.590Z,132.57
2022-11-15T17:16:50.657Z,115.50
2022-11-15T17:22:12.794Z,93.03
2022-11-15T17:24:41.306Z,88.78
2022-11-15T17:27:09.775Z,107.22
2022-11-15T17:29:37.773Z,107.57
2022-11-15T17:32:06.342Z,136.45
2022-11-15T17:34:35.171Z,129.07
2022-11-15T17:37:03.982Z,93.07
2022-11-15T17:39:32.018Z,92.22
2022-11-15T17:42:00.747Z,86.18
2022-11-15T17:44:29.043Z,63.58
2022-11-15T17:46:57.182Z,68.53
2022-11-15T17:49:25.278Z,64.22
2022-11-15T17:51:53.766Z,56.75
2022-11-15T17:54:22.405Z,60.30
2022-11-15T17:56:50.419Z,60.58
2022-11-15T17:59:21.534Z,68.38
2022-11-15T18:01:50.826Z,68.80
2022-11-15T18:04:19.264Z,64.28
2022-11-15T18:06:47.558Z,68.53
2022-11-15T18:09:16.075Z,64.55
2022-11-15T18:11:46.571Z,72.85
2022-11-15T18:14:15.693Z,59.17
2022-11-15T18:16:44.485Z,64.90
2022-11-15T18:19:13.943Z,66.53
2022-11-15T18:21:56.781Z,53.25
2022-11-15T18:24:34.946Z,50.15
2022-11-15T18:27:06.528Z,60.88
2022-11-15T18:29:38.184Z,57.72
2022-11-15T18:32:12.416Z,100.18
2022-11-15T18:34:41.375Z,86.40
2022-11-15T18:37:10.228Z,63.42
2022-11-15T18:39:39.311Z,80.80
2022-11-15T18:42:07.416Z,81.55
2022-11-15T18:44:35.529Z,106.85
2022-11-15T18:47:04.328Z,174.68
2022-11-15T18:49:32.453Z,108.15
2022-11-15T18:52:00.459Z,107.57
2022-11-15T18:54:31.436Z,108.43
2022-11-15T18:57:00.374Z,99.97
2022-11-15T18:59:29.750Z,86.53
2022-11-15T19:01:57.935Z,72.53
2022-11-15T19:04:26.361Z,66.38
2022-11-15T19:06:54.629Z,78.40
2022-11-15T19:09:27.303Z,103.57
2022-11-15T19:11:55.376Z,71.10
2022-11-15T19:14:26.399Z,72.32
2022-11-15T19:16:55.692Z,75.88
2022-11-15T19:19:28.033Z,98.72
2022-11-15T19:21:57.712Z,102.23
2022-11-15T19:24:27.428Z,122.68
2022-11-15T19:26:55.692Z,111.13
2022-11-15T19:29:24.277Z,116.18
2022-11-15T19:31:52.324Z,108.95
2022-11-15T19:34:21.318Z,113.97
2022-11-15T19:36:49.759Z,94.32
2022-11-15T19:39:18.677Z,85.10
2022-11-15T19:41:47.832Z,78.22
2022-11-15T19:44:16.753Z,70.45
2022-11-15T19:46:45.191Z,60.67
2022-11-15T19:49:14.011Z,75.68
2022-11-15T19:51:44.868Z,102.38
2022-11-15T19:54:17.633Z,99.93
2022-11-15T19:56:46.170Z,102.80
2022-11-15T19:59:15.313Z,106.72
2022-11-15T20:01:43.923Z,100.07
2022-11-15T20:04:12.517Z,88.93
2022-11-15T20:06:43.244Z,102.30
2022-11-15T20:09:14.320Z,91.43
2022-11-15T20:11:43.146Z,93.80
2022-11-15T20:14:13.221Z,71.20
2022-11-15T20:16:42.151Z,75.00
2022-11-15T20:19:12.510Z,75.88
2022-11-15T20:21:41.442Z,68.88
2022-11-15T20:24:10.297Z,73.45
2022-11-15T20:26:39.001Z,81.90
2022-11-15T20:29:10.111Z,76.55
2022-11-15T20:31:38.716Z,79.00
2022-11-15T20:34:07.131Z,84.57
2022-11-15T20:36:35.150Z,78.05
2022-11-15T20:39:03.628Z,76.18
2022-11-15T20:41:31.729Z,74.03
2022-11-15T20:44:03.025Z,67.72
2022-11-15T20:46:31.228Z,66.03
2022-11-15T20:48:59.856Z,58.75
2022-11-15T20:51:27.839Z,45.42
2022-11-15T20:53:56.531Z,58.35
2022-11-15T20:56:25.445Z,72.07
2022-11-15T20:58:54.867Z,47.88
2022-11-15T21:01:24.902Z,71.35
2022-11-15T21:03:55.479Z,77.22
2022-11-15T21:06:26.596Z,72.95
2022-11-15T21:09:13.983Z,57.90
2022-11-15T21:12:08.259Z,64.38
2022-11-15T21:14:37.367Z,58.67
2022-11-15T21:17:06.702Z,52.78
2022-11-15T21:19:37.025Z,46.88
2022-11-15T21:22:07.174Z,44.30
2022-11-15T21:24:35.139Z,45.58
2022-11-15T21:27:03.336Z,42.53
2022-11-15T21:29:38.361Z,44.85
2022-11-15T21:32:08.384Z,41.97
2022-11-15T21:34:37.027Z,43.88
2022-11-15T21:37:06.605Z,39.70
2022-11-15T21:39:35.288Z,44.65
2022-11-15T21:42:03.859Z,41.15
2022-11-15T21:44:32.366Z,43.55
2022-11-15T21:47:01.518Z,46.00
2022-11-15T21:49:29.513Z,43.83
2022-11-15T21:51:58.578Z,40.90
2022-11-15T21:54:26.885Z,42.25
2022-11-15T21:56:54.819Z,41.33
2022-11-15T21:59:23.288Z,44.72
2022-11-15T22:02:10.165Z,48.55
2022-11-15T22:04:39.092Z,51.38
2022-11-15T22:07:07.733Z,50.13
2022-11-15T22:09:35.917Z,59.10
2022-11-15T22:12:04.048Z,59.38
2022-11-15T22:14:32.005Z,53.70
2022-11-15T22:17:00.409Z,53.25
2022-11-15T22:19:28.399Z,55.97
2022-11-15T22:21:56.338Z,55.78
2022-11-15T22:24:24.461Z,54.05
2022-11-15T22:26:52.845Z,42.42
2022-11-15T22:29:21.369Z,40.75
2022-11-15T22:31:49.354Z,42.22
2022-11-15T22:34:17.412Z,41.45
2022-11-15T22:37:13.255Z,42.38
2022-11-15T22:39:34.754Z,42.67
2022-11-15T22:42:03.112Z,37.35
2022-11-15T22:44:31.617Z,41.90
2022-11-15T22:46:59.632Z,43.63
2022-11-15T22:49:27.738Z,37.00
2022-11-15T22:51:55.826Z,37.70
2022-11-15T22:54:24.332Z,35.97
2022-11-15T22:56:52.392Z,34.47
2022-11-15T22:59:20.745Z,29.92
2022-11-15T23:01:51.033Z,30.77
2022-11-15T23:04:19.089Z,33.67
2022-11-15T23:06:47.295Z,33.88
2022-11-15T23:09:16.065Z,30.85
2022-11-15T23:12:03.088Z,30.90
2022-11-15T23:14:31.976Z,28.20
2022-11-15T23:16:59.889Z,31.73
2022-11-15T23:19:27.872Z,34.83
2022-11-15T23:22:15.135Z,36.33
2022-11-15T23:24:43.081Z,34.25
2022-11-15T23:27:15.273Z,35.10
2022-11-15T23:30:03.196Z,37.42
2022-11-15T23:32:51.143Z,34.60
2022-11-15T23:35:19.332Z,33.85
2022-11-15T23:37:47.781Z,33.92
2022-11-15T23:40:16.217Z,30.67
2022-11-15T23:42:44.637Z,30.13
2022-11-15T23:45:13.067Z,47.50
2022-11-15T23:47:40.919Z,42.78
2022-11-15T23:50:09.444Z,42.22
2022-11-15T23:52:38.511Z,34.30
2022-11-15T23:55:07.454Z,30.38
2022-11-15T23:57:35.470Z,29.15
